METAR

METAR RPLL (MNL) – NINOY AQUINO INTERNATIONAL AIRPORT (MANILA INTERNATIONAL AIRPORT)
RPLL 200900Z 23007KT 5000 RA BKN019 OVC080 26/25 Q1002 NOSIG RMK A2959
RPLL 200800Z 22005KT 190V260 6000 RA BKN019 OVC080 26/25 Q1002 NOSIG RMK A2959
RPLL 200700Z 25006KT 6000 -RA SCT019 OVC080 26/25 Q1003 NOSIG RMK A2962
RPLL 200600Z 25006KT 6000 -RA SCT020 OVC090 27/26 Q1003 NOSIG RMK A2962
RPLL 200500Z 25005KT 6000 -RA SCT020 OVC090 26/25 Q1003 NOSIG RMK A2962
RPLL 200400Z 26004KT 5000 -RA SCT020 OVC090 27/26 Q1005 NOSIG RMK A2968
RPLL 200300Z VRB02KT 5000 -RA BKN020 OVC090 27/26 Q1006 NOSIG RMK A2971=
RPLL 200200Z VRB01KT 4000 -RA BR FEW016 BKN021 OVC100 27/26 Q1006 TEMPO 8000 RMK A2971
RPLL 200100Z VRB01KT 8000 -RA FEW023 OVC100 28/25 Q1006 NOSIG RMK A2971
RPLL 200000Z VRB01KT 6000 -RA FEW023 OVC100 28/25 Q1006 NOSIG RMK A2971
RPLL 192300Z 32003KT 290V030 8000 FEW023 OVC100 28/25 Q1005 RERA NOSIG RMK A2968
RPLL 192200Z 34003KT 260V030 9000 -RA FEW023 OVC090 28/25 Q1005 NOSIG RMK A2968
RPLL 192100Z 27003KT 240V300 9999 FEW023 OVC100 27/25 Q1004 RERA NOSIG RMK A2965
RPLL 192000Z 32004KT 290V010 9999 FEW025 BKN100 28/25 Q1004 NOSIG RMK A2965
RPLL 191800Z VRB01KT 9000 SCT022 OVC100 28/24 Q1005 TEMPO 8000 -SHRA RMK A2974
RPLL 191700Z 01004KT 330V030 9999 FEW023 BKN100 28/24 Q1007 NOSIG RMK A2974
RPLL 191600Z 34003KT 290V040 9999 FEW023 BKN100 28/24 Q1008 NOSIG RMK A2977
RPLL 191500Z 24002KT 9999 FEW023 SCT090 28/25 Q1009 NOSIG RMK A2980
RPLL 191327Z VRB02KT 9999 -SHRA FEW023 BKN100 29/25 Q1009 NOSIG RMK A2980
RPLL 190800Z 07004KT 9999 FEW023 SCT100 32/25 Q1006 NOSIG RMK A2971
RPLL 190700Z VRB04KT 9999 FEWT023 BKN100 32/25 Q1006 NOSIG RMK A2971
RPLL 190600Z 08005KT 040V190 9999 SCT023 BKN100 33/24 Q1007 NOSIG RMK A2974
RPLL 190500Z 08005KT 050V170 9999 SCT023 BKN100 32/24 Q1007 NOSIG RMK A2974
RPLL 190400Z 02008KT 330V060 9999 SCT023 BKN100 32/24 Q1006 NOSIG RMK A2971
RPLL 190300Z 03008KT 010V070 9999 FEW023 BKN100 32/23 Q1007 NOSIG RMK A2974
RPLL 190200Z 04008KT 350V050 9999 BKN025 31/23 Q1008 NOSIG RMK A2977
RPLL 190100Z 04006KT 360V080 9999 FEW025 SCT300 31/23 Q1009 NOSIG RMK A2980
RPLL 190000Z VRB02KT 9999 FEW025 SCT300 30/24 Q1008 NOSIG RMK A2977
RPLL 182300Z 08004KT 050V130 9999 FEW025 SCT300 27/24 Q1008 NOSIG RMK A2977
RPLL 182200Z 04003KT 360V060 9999 FEW025 SCT300 25/24 Q1008 NOSIG RMK A2977
RPLL 182100Z 35004KT 330V040 9999 FEW025 26/24 Q1007 NOSIG RMK A2974
RPLL 182000Z 03003KT 350V060 9999 BKN025 26/24 Q1008 NOSIG RMK A2977
RPLL 181900Z 00000KT 9999 FEW025 26/24 Q1008 NOSIG RMK A2977
RPLL 181800Z 32003KT 280V050 9999 FEW023 26/25 Q1008 NOSIG RMK A2977

RPVM (CEB) – MACTAN-CEBU INTERNATIONAL AIRPORT
RPVM 200900Z 23009KT 190V250 9999 FEW018CB OVC090 29/24 Q1005 RMK A2968 CB NW
RPVM 200800Z 22010KT 180V240 9999 FEW018CB OVC090 30/24 Q1005 RMK A2968 CB NW
RPVM 200700Z 21010KT 9999 FEW018CB OVC090 30/25 Q1004 RMK A2965 CB NE
RPVM 200600Z 20006KT 9999 FEW018CB OVC100 30/25 Q1005 RMK A2968 CB NE
RPVM 200500Z 20011KT 9999 FEW018CB OVC100 30/25 Q1005 RMK A2968 CB N ENE
RPVM 200400Z 20011KT 9999 FEW018CB OVC100 31/25 Q1006 RMK A2971 CB E SE
RPVM 200300Z 21008KT 9999 FEW018CB SCT100 BKN250 31/24 Q1006 RMK A2971 CB NE S
RPVM 200200Z 22010KT 9999 FEW020 SCT100 BKN250 31/24 Q1007 RMK A2974
RPVM 200100Z 23008KT 9999 FEW018CB OVC100 30/25 Q1008 RMK A2977 CB N
RPVM 200000Z 27006KT 9999 FEW018CB OVC100 29/25 Q1007 RMK A2974 CB N
RPVM 192300Z 22003KT 9999 FEW018CB OVC100 28/25 Q1007 RMK A2974 CB N
RPVM 192200Z 19004KT 9999 FEW018CB OVC090 27/25 Q1006 RMK A2971 CB E THRU S
RPVM 192100Z 20004KT 9999 FEW020 OVC090 27/25 Q1005 RMK A2968
RPVM 192000Z 21002KT 9999 FEW020 OVC090 26/25 Q1005 RMK A2968
RPVM 191800Z VRB02KT 9999 FEW020 OVC100 26/25 Q1006 RMK A2968
RPVM 191700Z VRB02KT 9999 FEW018CB OVC100 27/25 Q1006 RMK A2971 CB E-SE
RPVM 191600Z 26004KT 160V320 9999 FEW020 BKN100 OVC250 27/25 Q1007 RMK A2974
RPVM 191500Z 31003KT 9999 FEW020 OVC250 27/25 Q1007 RMK A2974
RPVM 191300Z 32002KT 9999 FEW020 OVC090 27/24 Q1007 RMK A2974
RPVM 190800Z 36005KT 9999 SCT018CB OVC090 28/25 Q1005 RMK A2968 CB NE-E W-NW
RPVM 190700Z 02007KT 9999 FEW018CB OVC090 29/25 Q1005 RMK A2968 CB N-NE NW
RPVM 190600Z 02003KT 350V070 9999 FEW018CB OVC100 29/25 Q1005 RMK A2968 CB N-NE NW
RPVM 190500Z VRB02KT 9999 FEW018CB OVC100 29/26 Q1005 RETSRA RMK A2968 CB N W-NW
RPVM 190400Z 14003KT 9999 TS FEW018CB OVC090 29/26 Q1006 RMK A2971 CB N-NE-SE W-NW
RPVM 190300Z 16006KT 9999 FEW018CB OVC100 29/25 Q1007 RMK A2974 CB NE-SE NW
RPVM 190200Z 17004KT 110V210 9999 FEW018CB OVC100 30/25 Q1008 RMK A2977 CB NE-SE
RPVM 190100Z VRB02KT 9999 FEW018CB OVC100 29/24 Q1008 RMK A2977 CB ENE-NW
RPVM 190000Z 23004KT 9999 FEW018CB BKN250 29/24 Q1008 RMK A2977 CB NE-SE
RPVM 182300Z 27003KT 9999 FEW020TCU BKN250 27/25 Q1007 RMK A2974 TCU NE-E
RPVM 182200Z 24004KT 9999 FEW020 BKN250 26/24 Q1007 RMK A2974
RPVM 182100Z VRB01KT 9999 FEW020 BKN300 25/24 Q1006 RMK A2971
RPVM 182000Z 26003KT 9999 FEW020 BKN300 25/24 Q1006 RMK A2971
RPVM 181900Z 28002KT 9999 FEW020 BKN300 26/24 Q1006 RMK A2971
RPVM 181800Z VRB02KT 9999 FEW020 BKN300 26/24 Q1007 RMK A2974

RPLC (CRK) – CLARK INTERNATIONAL AIRPORT
RPLC 200900Z 02004KT 3000 -RA SCT020 OVC090 26/25 Q1002 RMK A2959
RPLC 200800Z 18004KT 3000 -RA SCT020 OVC090 26/26 Q1002 RMK A2959
RPLC 200700Z 18006KT 3000 -RA SCT020 OVC090 26/25 Q1002 RMK A2959
RPLC 200600Z 18006KT 3000 -RA SCT020 OVC090 26/25 Q1003 RMK A2962
RPLC 200500Z 18008KT 3000 -RA SCT020 OVC100 26/26 Q1004 RMK A2965
RPLC 200400Z 18006KT 3000 -RA SCT020 OVC100 27/26 Q1005 RMK A2968
RPLC 200300Z 18006KT 3000 -RA SCT020 OVC100 27/25 Q1006 RMK A2971
RPLC 200200Z 36002KT 8000 -RA SCT020 OVC100 29/24 Q1007 NOSIG RMK A2974
RPLC 200100Z 36002KT 8000 -RA SCT020 OVC100 28/24 Q1007 NOSIG RMK A2974
RPLC 200000Z 32002KT 8000 SCT020 OVC100 27/24 Q1006 NOSIG RMK A2971
RPLC 192300Z 18002KT 8000 SCT020 OVC100 26/24 Q1006 NOSIG RMK A2971
RPLC 192200Z 22004KT 8000 -RA SCT020 OVC100 25/24 Q1005 RMK A2968
RPLC 192100Z 09002KT 8000 SCT020 OVC100 26/23 Q1005 NOSIG RMK A2968
RPLC 192000Z 32002KT 8000 SCT020 OVC100 26/23 Q1005 NOSIG RMK A2968
RPLC 191800Z 29002KT 8000 SCT020 OVC100 26/24 Q1006 NOSIG RMK A2971
RPLC 191700Z 29002KT 8000 SCT020 BKN100 26/24 Q1007 NOSIG RMK A2974
RPLC 191600Z 33002KT 8000 SCT020 BKN100 26/24 Q1008 NOSIG RMK A2977
RPLC 191500Z 32002KT 8000 FEW020 BKN100 27/25 Q1008 NOSIG RMK A2977
RPLC 191300Z 36004KT 8000 SCT020 OVC100 28/25 Q1009 NOSIG RMK A2980
RPLC 190800Z 36004KT 9999 SCT020 BKN300 32/24 Q1006 NOSIG RMK A2971
RPLC 190700Z 36004KT 9999 FEW020 SCT100 BKN300 32/23 Q1006 NOSIG RMK A2971
RPLC 190600Z 02004KT 9999 SCT020 BKN100 33/23 Q1006 NOSIG RMK A2971
RPLC 190500Z 36006KT 9999 FEW020 BKN300 33/24 Q1007 NOSIG RMK A2974
RPLC 190400Z 36006KT 9999 FEW020 BKN300 33/23 Q1008 NOSIG RMK A2977
RPLC 190300Z 36004KT 9999 FEW020 BKN300 32/23 Q1009 NOSIG RMK A2980
RPLC 190200Z 36004KT 9999 FEW020 BKN300 31/23 Q1010 NOSIG RMK A2983
RPLC 190100Z 35006KT 9999 FEW020 BKN300 29/23 Q1010 NOSIG RMK A2983
RPLC 190000Z 34002KT 9999 FEW020 BKN300 27/23 Q1010 NOSIG RMK A2983
RPLC 182300Z 36004KT 9999 FEW020 BKN300 25/22 Q1010 NOSIG RMK A2983
RPLC 182200Z 28004KT 8000 FEW020 BKN300 23/21 Q1009 NOSIG RMK A2980
RPLC 182100Z 32004KT 8000 FEW020 BKN300 24/22 Q1009 NOSIG RMK A2980
RPLC 182000Z 27004KT 8000 FEW020 BKN300 24/22 Q1009 NOSIG RMK A2980
RPLC 181900Z 27002KT 8000 FEW020 BKN300 24/22 Q1009 NOSIG RMK A2980
RPLC 181800Z 34002KT 8000 FEW020 BKN300 24/23 Q1009 NOSIG RMK A2983

RPLB (SFS) – SUBIC BAY INTERNATIONAL AIRPORT
RPLB 200900Z 19005KT 9000 -RA SCT018 OVC070 27/25 Q1002 RMK A2959
RPLB 200800Z 17005KT 140V210 9000 -RA FEW018 OVC070 27/26 Q1003 RMK A2962
RPLB 200700Z 18004KT 140V210 9000 -RA FEW018 OVC070 27/25 Q1003 RMK A2962
RPLB 200600Z 14003KT 090V200 9000 -SHRA FEW018 OVC070 27/25 Q1003 RMK A2962
RPLB 200500Z VRB02KT 9000 -SHRA FEW018 OVC080 28/25 Q1004 RESHRA RMK A2965
RPLB 200400Z VRB02KT 9000 -SHRA FEW018 BKN080 OVC300 28/25 Q1005 RMK A2968
RPLB 200300Z VRB01KT 9999 FEW020 SCT080 OVC300 28/25 Q1006 NOSIG RMK A2971
RPLB 200200Z VRB02KT 9999 FEW020 BKN080 OVC300 29/25 Q1007 NOSIG RMK A2974
RPLB 200100Z VRB02KT 9999 FEW020 BKN080 OVC300 27/25 Q1006 NOSIG RMK A2971
RPLB 200000Z 06004KT 9999 FEW020 BKN080 OVC300 26/25 Q1006 NOSIG RMK A2971
RPLB 192300Z 08003KT 040V130 9999 FEW020 BKN080 OVC300 25/24 Q1006 NOSIG RMK A2971
RPLB 192200Z 08002KT 9999 FEW020 BKN080 OVC300 25/24 Q1005 NOSIG RMK A2968
RPLB 192100Z 06003KT 9999 FEW020 BKN080 OVC300 25/24 Q1005 NOSIG RMK A2968
RPLB 192000Z 00000KT 9999 FEW020 BKN080 OVC300 26/24 Q1005 RMK A2968
RPLB 191800Z 05003KT 9999 FEW020 OVC300 25/24 Q1006 NOSIG RMK A2971
RPLB 191700Z 04003KT 9999 FEW020 OVC300 26/24 Q1007 NOSIG RMK A2974
RPLB 191600Z 07006KT 9999 FEW020 OVC300 26/24 Q1008 NOSIG RMK A2977
RPLB 191500Z 00000KT 9999 FEW020 OVC300 27/24 Q1008 NOSIG RMK A2977
RPLB 191300Z 35004KT 330V030 9999 FEW020 BKN300 28/24 Q1009 NOSIG RMK A2980
RPLB 190800Z 34006KT 310V020 9999 FEW020 BKN300 31/25 Q1006 NOSIG RMK A2971
RPLB 190700Z 08010KT 9999 SCT020 BKN300 32/23 Q1005 NOSIG RMK A2968
RPLB 190600Z 07010KT 040V100 9999 SCT020 BKN300 33/23 Q1006 NOSIG RMK A2971
RPLB 190500Z 08013KT 040V110 9999 FEW020 BKN300 33/23 Q1006 NOSIG RMK A2971
RPLB 190400Z 06012KT 030V090 9999 FEW020 BKN300 32/22 Q1007 NOSIG RMK A2974
RPLB 190300Z 07011KT 9999 FEW020 BKN300 32/23 Q1008 NOSIG RMK A2977
RPLB 190200Z 05006KT 360V090 9999 FEW020 BKN300 31/23 Q1009 NOSIG RMK A2980
RPLB 190100Z 03003KT 9999 FEW020 BKN300 29/23 Q1009 NOSIG RMK A2980
RPLB 190000Z 03006KT 9999 FEW020 BKN300 28/22 Q1010 NOSIG RMK A2983
RPLB 182300Z 03004KT 9999 FEW020 26/22 Q1009 NOSIG RMK A2980
RPLB 182200Z 05004KT 9999 FEW020 24/23 Q1008 NOSIG RMK A2977
RPLB 182100Z 07005KT 9999 FEW020 24/23 Q1008 NOSIG RMK A2977
RPLB 182000Z 05003KT 9999 FEW020 SCT080 25/23 Q1008 NOSIG RMK A2977
RPLB 181900Z 01003KT 340V040 9999 FEW020 26/23 Q1008 NOSIG RMK A2977
RPLB 181800Z 01003KT 310V070 9999 FEW020 SCT080 26/23 Q1009 NOSIG RMK A2980

RPLI (LAO) – LAOAG INTERNATIONAL AIRPORT
RPLI 200900Z 03013KT 7000 -SHRA SCT018 BKN080 28/25 Q1002 NOSIG RMK A2959
RPLI 200800Z 02016KT 7000 -SHRA SCT018 BKN080 27/26 Q1002 NOSIG RMK A2959
RPLI 200700Z 03015KT 8000 VCSH SCT018 BKN080 29/25 Q1002 NOSIG RMK A2959 VCSH SE-S
RPLI 200600Z 03014KT 360V070 8000 VCSH SCT018 OVC080 29/25 Q1003 NOSIG RMK A2962 VCSH NE-SE
RPLI 200500Z 02012KT 350V050 8000 VCSH SCT018 BKN080 28/26 Q1004 NOSIG RMK A2965 VCSH NE NW-N
RPLI 200400Z 03015KT 7000 -SHRA SCT018 OVC080 29/25 Q1005 NOSIG RMK A2968
RPLI 200300Z 03013G24KT 8000 VCSH SCT018 BKN080 30/24 Q1006 NOSIG RMK A2971 VCSH NE-SE
RPLI 200200Z 03014KT 360V060 8000 VCSH SCT018 BKN080 30/25 Q1007 NOSIG RMK A2974 VCSH E
RPLI 200100Z 03014KT 9999 SCT018 BKN080 29/24 Q1007 NOSIG RMK A2974
RPLI 200000Z 03013KT 8000 VCSH SCT018 BKN080 29/24 Q1007 NOSIG RMK A2974 VCSH NE-S
RPLI 192300Z 03016KT 8000 VCSH FEW017CB SCT018 BKN100 28/24 Q1007 NOSIG RMK A2974CB SW NW VCSH NE-SE
RPLI 192200Z 04012KT 8000 SCT018 BKN100 28/24 Q1006 NOSIG RMK A2971
RPLI 192100Z 03012KT 9999 FEW018 BKN290 27/23 Q1006 NOSIG RMK A2971
RPLI 191800Z 03014KT 9999 FEW018 SCT290 28/23 Q1007 NOSIG RMK A2974
RPLI 191500Z 03008KT 9999 FEW018 SCT100 BKN290 28/24 Q1009 NOSIG RMK A2980
RPLI 191200Z 04006KT 9999 FEW018 SCT100 BKN290 29/23 Q1008 NOSIG RMK A2977
RPLI 190800Z 04011KT 9999 FEW018 BKN100 32/24 Q1006 NOSIG RMK A2971
RPLI 190700Z 04013KT 9999 FEW018 SCT100 33/25 Q1005 NOSIG RMK A2968
RPLI 190600Z 02011KT 350V050 9999 FEW018 SCT100 33/26 Q1006 NOSIG RMK A2971
RPLI 190500Z 07009KT 020V100 9999 FEW018 SCT100 34/24 Q1006 NOSIG RMK A2971
RPLI 190400Z 09004KT 9999 FEW018 SCT100 33/25 Q1007 NOSIG RMK A2974
RPLI 190300Z 05007KT 360V100 9999 FEW018 SCT100 33/23 Q1009 NOSIG RMK A2980
RPLI 190200Z 04006KT 010V080 9999 FEW018 SCT100 32/22 Q1009 NOSIG RMK A2980
RPLI 190100Z 11003KT 080V150 9999 FEW018 BKN090 30/23 Q1009 NOSIG RMK A2980
RPLI 190000Z VRB02KT 9999 FEW018 SCT290 30/23 Q1009 NOSIG RMK A2980
RPLI 182300Z VRB02KT 8000 FEW018 BKN290 26/23 Q1009 NOSIG RMK A2980
RPLI 182200Z 08003KT 8000 FEW018 BKN290 24/23 Q1009 NOSIG RMK A2980
RPLI 182100Z VRB02KT 9999 FEW018 24/23 Q1008 NOSIG RMK A2977
RPLI 181800Z 21002KT 9999 FEW018 25/24 Q1008 NOSIG RMK A2977

RPVP (PPS) – PUERTO PRINCESA INTERNATIONAL AIRPORT
RPVP 200900Z 18004KT 9999 SCT019 OVC240 29/23 Q1005 RMK A2968
RPVP 200800Z 03004KT 9999 SCT019 OVC240 30/24 Q1005 RMK A2968
RPVP 200700Z 15004KT 9999 SCT019 OVC240 30/24 Q1005 RMK A2968
RPVP 200600Z 25004KT 9999 SCT019 OVC080 30/23 Q1005 RMK A2968
RPVP 200500Z 30004KT 9999 SCT019 OVC080 30/24 Q1005 RMK A2968
RPVP 200400Z 35008KT 9999 SCT019 OVC080 29/23 Q1006 RMK A2971
RPVP 200300Z 36010KT 9999 SCT019 OVC080 29/25 Q1008 RMK A2977
RPVP 200200Z 36004KT 9999 FEW019 OVC080 29/25 Q1008 RMK A2977
RPVP 200100Z 30004KT 9999 FEW019 OVC080 28/24 Q1008 RMK A2977
RPVP 200000Z 35004KT 9999 SCT019 OVC080 27/24 Q1008 RESHRA RMK A2977
RPVP 192300Z 25004KT 9999 -SHRA SCT019 OVC080 26/25 Q1008 RMK A2977
RPVP 192200Z 29004KT 9999 -SHRA SCT019 OVC080 25/24 Q1007 RMK A2974
RPVP 192100Z 24004KT 9999 -SHRA SCT019 OVC080 26/24 Q1006 RMK A2971
RPVP 191500Z 27004KT 9999 -SHRA SCT019 BKN080 26/24 Q1008 RMK A2977 CB SE W/ OCNL LTG
RPVP 191200Z 27005KT 9999 FEW019 SCT250 27/23 Q1007 RMK A2974
RPVP 190800Z 33006KT 9999 FEW019 BKN080 OVC240 30/24 Q1005 RMK A2968
RPVP 190700Z 33010KT 9999 FEW019 BKN080 OVC240 30/24 Q1005 RMK A2968
RPVP 190600Z 33010KT 9999 FEW019 BKN080 31/25 Q1005 RESHRA RMK A2968
RPVP 190500Z 36010KT 9999 FEW019 BKN080 OVC240 30/25 Q1007 RMK A2974
RPVP 190400Z 36010KT 9999 FEW019 BKN080 OVC240 31/24 Q1007 RMK A2974
RPVP 190300Z 36006KT 9999 FEW019 BKN080 OVC240M 30/25 Q1008 RMK A2977
RPVP 190200Z 36010KT 9999 FEW019 OVC080 30/24 Q1009 RMK A2980
RPVP 190100Z 36010KT 9999 FEW019 BKN240 30/25 Q1008 RMK A2977
RPVP 190000Z 02006KT 9999 FEW019 SCT080 BKN240 28/24 Q1008 RMK A2977
RPVP 182300Z 24004KT 9999 FEW019 BKN250 26/25 Q1007 RMK A2974
RPVP 182200Z 24004KT 9999 FEW017CB SCT250 26/24 Q1007 RMK A2974 CB NE
RPVP 182100Z 04004KT 9999 FEW019 26/24 Q1006 RMK A2971
RPVP 181800Z 32004KT 9999 FEW020 26/24 Q1007 RMK A2974

RPVD (DGT) – SIBULAN AIRPORT (DUMAGUETE AIRPORT)
RPVD 200900Z 36008KT 9999 VCSH FEW014CB FEW015 BKN070 30/25 Q1004 RMK A2965 CB/VCSH SE-S NW
RPVD 200800Z 34008KT 9999 VCSH FEW014CB FEW015 SCT070 30/25 Q1004 RMK A2965 CB/VCSH SE
RPVD 200700Z 07006KT 9999 FEW015 BKN220 30/25 Q1004 RMK A2965
RPVD 200600Z 34008KT 9999 FEW015 SCT070 BKN220 30/25 Q1005 RMK A2968
RPVD 200500Z 32008KT 9999 FEW015 BKN220 30/24 Q1005 RMK A2968
RPVD 200400Z 04006KT 9999 FEW015 BKN220 29/25 Q1006 RMK A2971
RPVD 200300Z 32008KT 9999 VCSH SCT014CB BKN070 29/26 Q1007 RESHRA RMK A2974 CB/VCSH S-N
RPVD 200200Z 04004KT 9999 VCSH FEW014CB SCT070 BKN220 30/25 Q1007 RMK A2974 CB/VCSH S-SW W-NW
RPVD 200100Z 04004KT 9999 FEW015 BKN220 29/24 Q1007 RMK A2974
RPVD 200000Z 02006KT 9999 FEW015 BKN220 28/25 Q1007 RMK A2974
RPVD 192100Z 27002KT 9999 FEW014CB FEW015 SCT070 25/23 Q1005 RMK A2968 CB NE E W-NW
RPVD 191500Z 22004KT 9999 FEW014CB FEW015 SCT220 27/24 Q1006 RMK A2971 CB E W/ OCNL LTG
RPVD 191200Z 27004KT 9999 FEW015 BKN070 28/25 Q1006 RMK A2971
RPVD 190800Z 34006KT 9999 FEW015 OVC220 30/25 Q1004 RMK A2965
RPVD 190700Z 34008KT 9999 FEW015 OVC220 30/25 Q1003 RMK A2962
RPVD 190600Z 34008KT 9999 FEW015 OVC220 31/25 Q1004 RMK A2965
RPVD 190500Z 34004KT 9999 FEW015 OVC220 31/25 Q1005 RMK A2968 TCU WSW
RPVD 190400Z 04008KT 9999 FEW015 BKN220 32/26 Q1005 RMK A2968
RPVD 190300Z 36006KT 9999 FEW015 BKN220 30/25 Q1006 RMK A2971
RPVD 190200Z 34006KT 9999 FEW015 BKN220 31/26 Q1007 RMK A2974
RPVD 190100Z 34006KT 9999 FEW015 BKN220 30/25 Q1007 RMK A2974
RPVD 190000Z 32004KT 9999 FEW015 BKN220 29/24 Q1008 RMK A2977
RPVD 182100Z 27004KT 9999 FEW014CB FEW015 SCT070 27/24 Q1006 RETS RMK A2971 CB SE W
RPVD 181800Z 27004KT 9999 FEW015 26/24 Q1006 RMK A2971

RPMR (GES) – GENERAL SANTOS INTERNATIONAL AIRPORT
RPMR 200900Z 16004KT 9999 FEW018 BKN080 27/24 Q1008 RMK A2977
RPMR 200800Z 16006KT 9999 VCSH FEW018 BKN080 28/24 Q1008 RMK A2977 VCSH S
RPMR 200700Z 18008KT 9999 VCSH FEW018CB BKN080 28/22 Q1007 RMK A2974 VCSH SW
RPMR 200600Z 18010KT 9999 -SHRA FEW018CB BKN080 30/22 Q1007 RMK A2974
RPMR 200500Z 20010KT 9999 VCSH FEW018CB BKN080 31/22 Q1008 RMK A2977 CB N NW VCSH SE S
RPMR 200400Z 22008KT 9999 VCSH FEW018CB BKN080 31/23 Q1008 RMK A2977 CB SE VCSH ESE
RPMR 200300Z 18010KT 9999 VCSH FEW018 BKN080 30/24 Q1009 RMK A2980 VCSH SSW
RPMR 200200Z 18010KT 9999 VCSH FEW018 BKN080 30/24 Q1010 RMK A2983 VCSH ESE
RPMR 200100Z 14002KT 9999 VCSH FEW018 BKN080 29/25 Q1011 RMK A2985 VCSH SSE
RPMR 200000Z 00000KT 9999 FEW018 BKN080 27/24 Q1011 RMK A2985
RPMR 190900Z 22004KT 9999 -RA SCT018 OVC080 25/24 Q1008 RMK A2977
RPMR 190800Z 16002KT 9000 -RA SCT0180 OVC080 25/24 Q1006 RMK A2971
RPMR 190700Z 18010KT 9999 -SHRA SCT018CB OVC080 27/24 Q1006 RMK A2971 CB OHD
RPMR 190600Z 18012KT 9999 VCSH FEW018CB OVC080 29/25 Q1006 RMK A2971 CB NW-N S VCSH S
RPMR 190500Z 18010KT 9999 FEW018CB BKN080 30/24 Q1006 RMK A2971 CB NW-N
RPMR 190400Z 16006KT 9999 FEW018 BKN080 30/24 Q1007 RMK A2974
RPMR 190300Z 14004KT 9999 FEW018 BKN080 30/24 Q1008 RMK A2977
RPMR 190200Z 00000KT 9999 VCSH FEW018 BKN080 29/23 Q1008 RMK A2977 VCSH S
RPMR 190100Z 12004KT 9999 FEW018 BKN080 28/24 Q1009 RMK A2983
RPMR 190000Z 02002KT 9999 FEW018 BKN080 27/24 Q1009 RMK A2983

RPMD (DVO) – FRANCISCO BANGOY INTERNATIONAL AIRPORT
RPMD 200900Z 17008KT 9999 SCT015CB SCT090 BKN260 30/24 Q1006 RMK A2971 CB/VCSH N NE SE W NW
RPMD 200800Z 18008KT 9999 VCSH SCT015CB SCT090 BKN260 30/24 Q1005 RMK A2968 CB/VCSH NE E SE SW W NW
RPMD 200700Z 20009KT 9999 VCSH SCT015CB SCT090 BKN260 30/25 Q1005 RMK A2968 CB/VCSH N SW W NW
RPMD 200600Z 18012KT 9999 VCSH SCT015CB SCT090 BKN260 31/24 Q1005 RMK A2968 CB/VCSH N SW W NW
RPMD 200500Z 19010KT 9999 VCSH SCT015 BKN090 BKN260 32/24 Q1006 RMK A2971 VCSH SE SW W
RPMD 200400Z 15008KT 9999 VCSH FEW015 BKN260 32/25 Q1007 RMK A2974 VCSH ENE W
RPMD 200300Z 16010KT 9999 VCSH FEW015 BKN260 31/24 Q1008 RMK A2977 VCSH W-NW
RPMD 200200Z 16008KT 9999 VCSH FEW015 SCT090 BKN260 31/24 Q1008 RMK A2977 VCSH N W NE E
RPMD 200100Z 18007KT 130V220 9999 VCSH FEW015 SCT090 BKN260 30/24 Q1009 RMK A2980 VCSH NW SE
RPMD 200000Z 18007KT 130V220 9999 VCSH FEW015 SCT090 BKN260 30/24 Q1009 RMK A2980 VCSH NW SE
RPMD 192300Z 25004KT 210V300 9999 VCSH FEW015 BKN090 BKN260 27/24 Q1008 RMK A2977 VCSH SE
RPMD 192200Z 24004KT 9999 FEW016 SCT090 BKN260 26/24 Q1007 RMK A2974
RPMD 192100Z 17008KT 130V190 9999 FEW016 SCT090 BKN260 27/23 Q1006 RMK A2971
RPMD 192000Z 22003KT 170V240 9999 FEW016 BKN090 BKN260 26/24 Q1006 RMK A2971
RPMD 191800Z 22004KT 9999 FEW016 SCT090 BKN290 26/24 Q1006 RMK A2971
RPMD 191700Z 19005KT 9999 FEW016 BKN090 OVC260 27/24 Q1007 RMK A2974
RPMD 191600Z 13002KT 9999 FEW016 SCT090 BKN260 26/26 Q1007 RMK A2974
RPMD 191500Z 14005KT 9999 SCT016 BKN260 26/25 Q1008 RMK A2977
RPMD 191300Z 16005KT 130V190 9999 FEW015 SCT090 BKN260 27/25 Q1008 RERA RMK A2977
RPMD 190800Z 17011KT 9999 SCT015CB BKN260 29/24 Q1005 RMK A2968 CB SSE W-NW
RPMD 190700Z 18010KT 9999 SCT015CB BKN290 30/26 Q1004 RMK A2965 CB ESE SW-NW
RPMD 190600Z 16010KT 130V190 9999 FEW015CB SCT090 BKN260 30/24 Q1004 RMK A2965 CB S SW
RPMD 190500Z VRB02KT 9999 FEW015CB SCT016 BKN290 31/24 Q1005 RMK A2968 CB SW
RPMD 190400Z VRB02KT 9999 FEW016 SCT090 BKN260 30/25 Q1005 RMK A2968
RPMD 190300Z 14003KT 110V200 9999 FEW016 SCT090 OVC260 29/25 Q1007 RMK A2974
RPMD 190200Z 06003KT 010V130 9999 VCSH SCT015 BKN090 OVC260 28/25 Q1008 RERA RMK A2977 VCSH SE
RPMD 190100Z VRB02KT 9999 -RA SCT015 BKN090 OVC260 28/26 Q1008 RMK A2977
RPMD 190000Z 02003KT 350V050 9999 SCT015 SCT090 BKN260 27/26 Q1008 RMK A2977
RPMD 182300Z VRB02KT 9999 FEW015 SCT090 BKN260 26/26 Q1008 RMK A2977
RPMD 182200Z VRB01KT 9999 VCSH FEW016 SCT090 BKN260 25/25 Q1007 RMK A2974 VCSH E SE
RPMD 182100Z VRB02KT 9999 FEW016 BKN260 25/25 Q1006 RMK A2971
RPMD 182000Z 34002KT 9999 FEW016 BKN260 25/25 Q1006 RMK A2971
RPMD 181900Z 36002KT 9999 FEW016 BKN260 25/25 Q1006 RMK A2971
RPMD 181800Z VRB01KT 9999 FEW016 BKN290 25/25 Q1007 RMK A2974

RPMZ (ZAM) – ZAMBOANGA INTERNATIONAL AIRPORT
RPMZ 200900Z 27010KT 9999 SCT016CB OVC090 27/25 Q1007 RMK A2974 CB ALQDS
RPMZ 200800Z 26008KT 9999 VCSH SCT016CB FEW017 OVC090 27/25 Q1007 RMK A2974 CB E N VCSH NW-N SE OHD
RPMZ 200700Z 28010KT 9999 -SHRA FEW016CB FEW017 BKN090 27/25 Q1006 RMK A2971 CB S-W NW-N OHD
RPMZ 200600Z 27006KT 9999 -SHRA SCT016CB FEW017 OVC080 26/25 Q1006 RMK A2971 CB E S W OHD
RPMZ 200500Z 26007KT 9999 -SHRA FEW016CB FEW017 OVC080 26/24 Q1007 RMK A2974 CB S-SW NW OHD
RPMZ 200400Z 27009KT 8000 -SHRA FEW016CB FEW017 OVC080 25/24 Q1008 RMK A2977 CB S-SW W NW OHD
RPMZ 200300Z 27009KT 8000 SHRA FEW016CB FEW017 OVC080 25/24 Q1009 RMK A2980 CB S W N OHD
RPMZ 200200Z 26010KT 9999 FEW016CB FEW017 BKN090 28/25 Q1009 RMK A2980 CB S W NW-N OHD
RPMZ 200100Z 28006KT 9999 FEW016CB FEW017 BKN090 27/25 Q1009 RESHRA RMK A2980 CB S-W
RPMZ 200000Z 24003KT 9999 -SHRA FEW016CB FEW017 BKN090 27/25 Q1009 RMK A2980 CB S W OHD
RPMZ 192300Z 28005KT 9999 -SHRA FEW016CB FEW017 BKN090 26/24 Q1008 RMK A2977 CB/VCSH S W OHD
RPMZ 192200Z 27005KT 240V300 9999 FEW016CB FEW017 OVC090 26/24 Q1007 RMK A2974
RPMZ 192100Z 26004KT 9999 FEW017 BKN090 25/24 Q1006 RMK A2971
RPMZ 191800Z 26005KT 9999 FEW016CB FEW017 OVC090 26/23 Q1007 RMK A2974 CB SE
RPMZ 191500Z 26009KT 230V290 9999 SCT016CB OVC090 26/25 Q1009 RMK A2980 CB OHD NE-SE
RPMZ 191200Z 30004KT 260V320 9999 FEW017 BKN090 27/24 Q1007 RMK A2974
RPMZ 190800Z 29010KT 9999 FEW016CB FEW017 BKN090 29/25 Q1005 RMK A2968 CB SW-NW
RPMZ 190700Z 27009KT 9999 FEW016CB FEW017 BKN090 28/25 Q1005 RETS RMK A2968 CB SW-W
RPMZ 190600Z 26007KT 220V290 9999 TS FEW016CB FEW017 BKN300 29/25 Q1005 RMK A2968 CB NW-NE OHD
RPMZ 190500Z 28013KT 9999 FEW016CB FEW017 BKN300 30/25 Q1005 RMK A2968 CB NW-N
RPMZ 190400Z 27009KT 230V310 9999 FEW016CB FEW017 SCT090 BKN300 31/26 Q1006 RMK A2971 CB N
RPMZ 190300Z 25006KT 180V290 9999 FEW016CB FEW017 BKN300 31/25 Q1007 RMK A2974 CB N
RPMZ 190200Z 25007KT 210V290 9999 FEW017 BKN300 30/26 Q1008 RMK A2977
RPMZ 190100Z 27007KT 240V320 9999 FEW017 BKN300 30/25 Q1008 RMK A2977
RPMZ 190000Z VRB02KT 9999 FEW017 BKN300 29/24 Q1008 RMK A2977
RPMZ 182300Z 28002KT 9999 FEW016CB FEW017 BKN090 26/24 Q1008 RMK A2977 CB W-NW
RPMZ 182200Z 34002KT 9999 FEW016CB FEW017 BKN090 24/24 Q1007 RMK A2974 CB W S-SE
RPMZ 182100Z VRB01KT 9999 FEW017 BKN300 25/24 Q1006 RMK A2971
RPMZ 181800Z 00000KT 9999 FEW017 BKN300 25/24 Q1007 RMK A2974